sensor_id;sensor_type;location;lat;lon;timestamp;temperature;humidity
32769;DHT22;23049;54.304;8.826;2023-04-01T00:00:16;10.80;99.90
32769;DHT22;23049;54.304;8.826;2023-04-01T00:02:42;10.70;99.90
32769;DHT22;23049;54.304;8.826;2023-04-01T00:05:08;10.70;99.90
32769;DHT22;23049;54.304;8.826;2023-04-01T00:07:35;10.70;99.90
32769;DHT22;23049;54.304;8.826;2023-04-01T00:10:02;10.80;99.90
32769;DHT22;23049;54.304;8.826;2023-04-01T00:12:27;10.80;99.90
32769;DHT22;23049;54.304;8.826;2023-04-01T00:14:53;10.80;99.90
32769;DHT22;23049;54.304;8.826;2023-04-01T00:17:18;10.80;99.90
32769;DHT22;23049;54.304;8.826;2023-04-01T00:19:44;10.80;99.90
32769;DHT22;23049;54.304;8.826;2023-04-01T00:22:09;10.90;99.90
32769;DHT22;23049;54.304;8.826;2023-04-01T00:24:37;10.90;99.90
32769;DHT22;23049;54.304;8.826;2023-04-01T00:27:02;10.90;99.90
32769;DHT22;23049;54.304;8.826;2023-04-01T00:29:28;10.90;99.90
32769;DHT22;23049;54.304;8.826;2023-04-01T00:31:56;10.90;99.90
32769;DHT22;23049;54.304;8.826;2023-04-01T00:34:22;10.90;99.90
32769;DHT22;23049;54.304;8.826;2023-04-01T00:36:47;10.90;99.90
32769;DHT22;23049;54.304;8.826;2023-04-01T00:39:13;10.90;99.90
32769;DHT22;23049;54.304;8.826;2023-04-01T00:41:38;10.90;99.90
32769;DHT22;23049;54.304;8.826;2023-04-01T00:44:23;10.90;99.90
32769;DHT22;23049;54.304;8.826;2023-04-01T00:46:49;10.90;99.90
32769;DHT22;23049;54.304;8.826;2023-04-01T00:49:15;10.90;99.90
32769;DHT22;23049;54.304;8.826;2023-04-01T00:51:42;10.90;99.90
32769;DHT22;23049;54.304;8.826;2023-04-01T00:54:09;11.00;99.90
32769;DHT22;23049;54.304;8.826;2023-04-01T00:56:40;10.60;99.90
32769;DHT22;23049;54.304;8.826;2023-04-01T00:59:08;10.20;99.90
32769;DHT22;23049;54.304;8.826;2023-04-01T01:01:36;10.10;99.90
32769;DHT22;23049;54.304;8.826;2023-04-01T01:04:01;9.90;99.90
32769;DHT22;23049;54.304;8.826;2023-04-01T01:06:39;9.80;99.90
32769;DHT22;23049;54.304;8.826;2023-04-01T01:12:03;9.60;99.90
32769;DHT22;23049;54.304;8.826;2023-04-01T01:16:58;9.40;99.90
32769;DHT22;23049;54.304;8.826;2023-04-01T01:27:10;9.20;99.90
32769;DHT22;23049;54.304;8.826;2023-04-01T01:29:47;9.20;99.90
32769;DHT22;23049;54.304;8.826;2023-04-01T01:32:26;9.10;99.90
32769;DHT22;23049;54.304;8.826;2023-04-01T01:37:40;9.00;99.90
32769;DHT22;23049;54.304;8.826;2023-04-01T01:40:07;9.00;99.90
32769;DHT22;23049;54.304;8.826;2023-04-01T01:42:35;9.00;99.90
32769;DHT22;23049;54.304;8.826;2023-04-01T01:45:02;8.90;99.90
32769;DHT22;23049;54.304;8.826;2023-04-01T01:47:29;8.80;99.90
32769;DHT22;23049;54.304;8.826;2023-04-01T01:49:55;8.70;99.90
32769;DHT22;23049;54.304;8.826;2023-04-01T01:52:21;8.70;99.90
32769;DHT22;23049;54.304;8.826;2023-04-01T01:54:50;8.70;99.90
32769;DHT22;23049;54.304;8.826;2023-04-01T01:57:16;8.60;99.90
32769;DHT22;23049;54.304;8.826;2023-04-01T01:59:42;8.60;99.90
32769;DHT22;23049;54.304;8.826;2023-04-01T02:02:08;8.50;99.90
32769;DHT22;23049;54.304;8.826;2023-04-01T02:04:36;8.50;99.90
32769;DHT22;23049;54.304;8.826;2023-04-01T02:07:04;8.50;99.90
32769;DHT22;23049;54.304;8.826;2023-04-01T02:09:32;8.50;99.90
32769;DHT22;23049;54.304;8.826;2023-04-01T02:12:03;8.50;99.90
32769;DHT22;23049;54.304;8.826;2023-04-01T02:14:32;8.50;99.90
32769;DHT22;23049;54.304;8.826;2023-04-01T02:17:09;8.50;99.90
32769;DHT22;23049;54.304;8.826;2023-04-01T02:19:40;8.50;99.90
32769;DHT22;23049;54.304;8.826;2023-04-01T02:22:08;8.50;99.90
32769;DHT22;23049;54.304;8.826;2023-04-01T02:24:35;8.50;99.90
32769;DHT22;23049;54.304;8.826;2023-04-01T02:27:01;8.40;99.90
32769;DHT22;23049;54.304;8.826;2023-04-01T02:29:27;8.40;99.90
32769;DHT22;23049;54.304;8.826;2023-04-01T02:31:53;8.40;99.90
32769;DHT22;23049;54.304;8.826;2023-04-01T02:34:19;8.40;99.90
32769;DHT22;23049;54.304;8.826;2023-04-01T02:36:45;8.40;99.90
32769;DHT22;23049;54.304;8.826;2023-04-01T02:39:12;8.30;99.90
32769;DHT22;23049;54.304;8.826;2023-04-01T02:41:39;8.30;99.90
32769;DHT22;23049;54.304;8.826;2023-04-01T02:44:04;8.30;99.90
32769;DHT22;23049;54.304;8.826;2023-04-01T02:46:30;8.30;99.90
32769;DHT22;23049;54.304;8.826;2023-04-01T02:48:55;8.30;99.90
32769;DHT22;23049;54.304;8.826;2023-04-01T02:51:21;8.20;99.90
32769;DHT22;23049;54.304;8.826;2023-04-01T02:53:46;8.20;99.90
32769;DHT22;23049;54.304;8.826;2023-04-01T02:56:12;8.10;99.90
32769;DHT22;23049;54.304;8.826;2023-04-01T02:58:37;8.00;99.90
32769;DHT22;23049;54.304;8.826;2023-04-01T03:01:03;8.00;99.90
32769;DHT22;23049;54.304;8.826;2023-04-01T03:03:28;8.00;99.90
32769;DHT22;23049;54.304;8.826;2023-04-01T03:05:54;8.00;99.90
32769;DHT22;23049;54.304;8.826;2023-04-01T03:08:25;7.90;99.90
32769;DHT22;23049;54.304;8.826;2023-04-01T03:10:50;7.90;99.90
32769;DHT22;23049;54.304;8.826;2023-04-01T03:13:16;7.80;99.90
32769;DHT22;23049;54.304;8.826;2023-04-01T03:15:41;7.80;99.90
32769;DHT22;23049;54.304;8.826;2023-04-01T03:18:07;7.70;99.90
32769;DHT22;23049;54.304;8.826;2023-04-01T03:20:32;7.70;99.90
32769;DHT22;23049;54.304;8.826;2023-04-01T03:22:58;7.70;99.90
32769;DHT22;23049;54.304;8.826;2023-04-01T03:25:23;7.60;99.90
32769;DHT22;23049;54.304;8.826;2023-04-01T03:27:49;7.60;99.90
32769;DHT22;23049;54.304;8.826;2023-04-01T03:30:14;7.50;99.90
32769;DHT22;23049;54.304;8.826;2023-04-01T03:32:40;7.40;99.90
32769;DHT22;23049;54.304;8.826;2023-04-01T03:35:06;7.40;99.90
32769;DHT22;23049;54.304;8.826;2023-04-01T03:37:31;7.30;99.90
32769;DHT22;23049;54.304;8.826;2023-04-01T03:39:57;7.30;99.90
32769;DHT22;23049;54.304;8.826;2023-04-01T03:42:22;7.30;99.90
32769;DHT22;23049;54.304;8.826;2023-04-01T03:44:48;7.20;99.90
32769;DHT22;23049;54.304;8.826;2023-04-01T03:47:13;7.20;99.90
32769;DHT22;23049;54.304;8.826;2023-04-01T03:49:39;7.10;99.90
32769;DHT22;23049;54.304;8.826;2023-04-01T03:52:07;7.10;99.90
32769;DHT22;23049;54.304;8.826;2023-04-01T03:54:33;7.00;99.90
32769;DHT22;23049;54.304;8.826;2023-04-01T03:56:59;7.00;99.90
32769;DHT22;23049;54.304;8.826;2023-04-01T03:59:25;6.90;99.90
32769;DHT22;23049;54.304;8.826;2023-04-01T04:01:50;7.00;99.90
32769;DHT22;23049;54.304;8.826;2023-04-01T04:04:16;7.00;99.90
32769;DHT22;23049;54.304;8.826;2023-04-01T04:06:41;6.90;99.90
32769;DHT22;23049;54.304;8.826;2023-04-01T04:09:07;6.80;99.90
32769;DHT22;23049;54.304;8.826;2023-04-01T04:11:32;6.80;99.90
32769;DHT22;23049;54.304;8.826;2023-04-01T04:13:58;6.80;99.90
32769;DHT22;23049;54.304;8.826;2023-04-01T04:16:23;6.70;99.90
32769;DHT22;23049;54.304;8.826;2023-04-01T04:18:49;6.70;99.90
32769;DHT22;23049;54.304;8.826;2023-04-01T04:21:16;6.70;99.90
32769;DHT22;23049;54.304;8.826;2023-04-01T04:23:41;6.60;99.90
32769;DHT22;23049;54.304;8.826;2023-04-01T04:26:08;6.60;99.90
32769;DHT22;23049;54.304;8.826;2023-04-01T04:28:34;6.60;99.90
32769;DHT22;23049;54.304;8.826;2023-04-01T04:31:00;6.60;99.90
32769;DHT22;23049;54.304;8.826;2023-04-01T04:33:26;6.50;99.90
32769;DHT22;23049;54.304;8.826;2023-04-01T04:35:53;6.50;99.90
32769;DHT22;23049;54.304;8.826;2023-04-01T04:38:19;6.50;99.90
32769;DHT22;23049;54.304;8.826;2023-04-01T04:40:45;6.40;99.90
32769;DHT22;23049;54.304;8.826;2023-04-01T04:43:12;6.30;99.90
32769;DHT22;23049;54.304;8.826;2023-04-01T04:45:37;6.30;99.90
32769;DHT22;23049;54.304;8.826;2023-04-01T04:48:03;6.20;99.90
32769;DHT22;23049;54.304;8.826;2023-04-01T04:50:28;6.30;99.90
32769;DHT22;23049;54.304;8.826;2023-04-01T04:52:54;6.30;99.90
32769;DHT22;23049;54.304;8.826;2023-04-01T04:55:20;6.30;99.90
32769;DHT22;23049;54.304;8.826;2023-04-01T04:57:45;6.20;99.90
32769;DHT22;23049;54.304;8.826;2023-04-01T05:00:11;6.10;99.90
32769;DHT22;23049;54.304;8.826;2023-04-01T05:02:37;6.10;99.90
32769;DHT22;23049;54.304;8.826;2023-04-01T05:05:02;6.20;99.90
32769;DHT22;23049;54.304;8.826;2023-04-01T05:07:28;6.20;99.90
32769;DHT22;23049;54.304;8.826;2023-04-01T05:09:53;6.10;99.90
32769;DHT22;23049;54.304;8.826;2023-04-01T05:12:19;6.10;99.90
32769;DHT22;23049;54.304;8.826;2023-04-01T05:14:44;6.10;99.90
32769;DHT22;23049;54.304;8.826;2023-04-01T05:17:10;6.10;99.90
32769;DHT22;23049;54.304;8.826;2023-04-01T05:19:36;6.10;99.90
32769;DHT22;23049;54.304;8.826;2023-04-01T05:22:02;6.10;99.90
32769;DHT22;23049;54.304;8.826;2023-04-01T05:24:28;6.10;99.90
32769;DHT22;23049;54.304;8.826;2023-04-01T05:26:53;6.10;99.90
32769;DHT22;23049;54.304;8.826;2023-04-01T05:29:19;6.00;99.90
32769;DHT22;23049;54.304;8.826;2023-04-01T05:31:44;6.10;99.90
32769;DHT22;23049;54.304;8.826;2023-04-01T05:34:10;6.00;99.90
32769;DHT22;23049;54.304;8.826;2023-04-01T05:36:35;6.00;99.90
32769;DHT22;23049;54.304;8.826;2023-04-01T05:39:01;6.00;99.90
32769;DHT22;23049;54.304;8.826;2023-04-01T05:41:27;6.00;99.90
32769;DHT22;23049;54.304;8.826;2023-04-01T05:43:52;6.00;99.90
32769;DHT22;23049;54.304;8.826;2023-04-01T05:46:18;6.00;99.90
32769;DHT22;23049;54.304;8.826;2023-04-01T05:48:43;6.00;99.90
32769;DHT22;23049;54.304;8.826;2023-04-01T05:51:15;5.90;99.90
32769;DHT22;23049;54.304;8.826;2023-04-01T05:53:40;5.90;99.90
32769;DHT22;23049;54.304;8.826;2023-04-01T05:56:06;5.90;99.90
32769;DHT22;23049;54.304;8.826;2023-04-01T05:58:34;5.90;99.90
32769;DHT22;23049;54.304;8.826;2023-04-01T06:01:01;5.90;99.90
32769;DHT22;23049;54.304;8.826;2023-04-01T06:03:27;5.80;99.90
32769;DHT22;23049;54.304;8.826;2023-04-01T06:05:52;5.90;99.90
32769;DHT22;23049;54.304;8.826;2023-04-01T06:08:18;5.90;99.90
32769;DHT22;23049;54.304;8.826;2023-04-01T06:10:48;5.80;99.90
32769;DHT22;23049;54.304;8.826;2023-04-01T06:13:23;5.80;99.90
32769;DHT22;23049;54.304;8.826;2023-04-01T06:15:58;5.80;99.90
32769;DHT22;23049;54.304;8.826;2023-04-01T06:18:41;5.90;99.90
32769;DHT22;23049;54.304;8.826;2023-04-01T06:23:49;5.80;99.90
32769;DHT22;23049;54.304;8.826;2023-04-01T06:26:20;5.80;99.90
32769;DHT22;23049;54.304;8.826;2023-04-01T06:33:57;5.90;99.90
32769;DHT22;23049;54.304;8.826;2023-04-01T06:36:37;5.90;99.90
32769;DHT22;23049;54.304;8.826;2023-04-01T06:41:50;5.90;99.90
32769;DHT22;23049;54.304;8.826;2023-04-01T06:54:52;5.90;99.90
32769;DHT22;23049;54.304;8.826;2023-04-01T06:57:29;5.90;99.90
32769;DHT22;23049;54.304;8.826;2023-04-01T06:59:57;5.90;99.90
32769;DHT22;23049;54.304;8.826;2023-04-01T07:04:50;5.90;99.90
32769;DHT22;23049;54.304;8.826;2023-04-01T07:07:59;5.90;99.90
32769;DHT22;23049;54.304;8.826;2023-04-01T07:10:09;6.00;99.90
32769;DHT22;23049;54.304;8.826;2023-04-01T07:12:38;5.90;99.90
32769;DHT22;23049;54.304;8.826;2023-04-01T07:15:12;6.00;99.90
32769;DHT22;23049;54.304;8.826;2023-04-01T07:17:38;5.90;99.90
32769;DHT22;23049;54.304;8.826;2023-04-01T07:22:34;6.00;99.90
32769;DHT22;23049;54.304;8.826;2023-04-01T07:25:13;6.00;99.90
32769;DHT22;23049;54.304;8.826;2023-04-01T07:27:41;6.00;99.90
32769;DHT22;23049;54.304;8.826;2023-04-01T07:30:12;6.00;99.90
32769;DHT22;23049;54.304;8.826;2023-04-01T07:32:42;6.00;99.90
32769;DHT22;23049;54.304;8.826;2023-04-01T07:37:40;6.00;99.90
32769;DHT22;23049;54.304;8.826;2023-04-01T07:40:17;6.00;99.90
32769;DHT22;23049;54.304;8.826;2023-04-01T07:43:07;6.00;99.90
32769;DHT22;23049;54.304;8.826;2023-04-01T07:45:38;6.10;99.90
32769;DHT22;23049;54.304;8.826;2023-04-01T07:48:29;6.00;99.90
32769;DHT22;23049;54.304;8.826;2023-04-01T08:01:48;5.90;99.90
32769;DHT22;23049;54.304;8.826;2023-04-01T08:04:30;6.00;99.90
32769;DHT22;23049;54.304;8.826;2023-04-01T08:09:56;6.10;99.90
32769;DHT22;23049;54.304;8.826;2023-04-01T08:12:35;6.10;99.90
32769;DHT22;23049;54.304;8.826;2023-04-01T08:17:45;6.10;99.90
32769;DHT22;23049;54.304;8.826;2023-04-01T08:22:51;6.10;99.90
32769;DHT22;23049;54.304;8.826;2023-04-01T08:25:20;6.10;99.90
32769;DHT22;23049;54.304;8.826;2023-04-01T08:33:15;6.00;99.90
32769;DHT22;23049;54.304;8.826;2023-04-01T08:35:46;6.10;99.90
32769;DHT22;23049;54.304;8.826;2023-04-01T08:43:16;6.20;99.90
32769;DHT22;23049;54.304;8.826;2023-04-01T08:45:48;6.00;99.90
32769;DHT22;23049;54.304;8.826;2023-04-01T09:21:02;6.00;99.90
32769;DHT22;23049;54.304;8.826;2023-04-01T09:34:00;5.80;99.90
32769;DHT22;23049;54.304;8.826;2023-04-01T09:41:51;5.90;99.90
32769;DHT22;23049;54.304;8.826;2023-04-01T09:46:57;5.80;99.90
32769;DHT22;23049;54.304;8.826;2023-04-01T09:52:15;5.80;99.90
32769;DHT22;23049;54.304;8.826;2023-04-01T10:12:44;5.70;99.90
32769;DHT22;23049;54.304;8.826;2023-04-01T10:15:19;5.70;99.90
32769;DHT22;23049;54.304;8.826;2023-04-01T10:44:04;5.70;99.90
32769;DHT22;23049;54.304;8.826;2023-04-01T10:46:42;5.60;99.90
32769;DHT22;23049;54.304;8.826;2023-04-01T10:52:30;5.50;99.90
32769;DHT22;23049;54.304;8.826;2023-04-01T10:54:40;5.50;99.90
32769;DHT22;23049;54.304;8.826;2023-04-01T11:00:14;5.50;99.90
32769;DHT22;23049;54.304;8.826;2023-04-01T11:03:05;5.60;99.90
32769;DHT22;23049;54.304;8.826;2023-04-01T11:21:48;5.40;99.90
32769;DHT22;23049;54.304;8.826;2023-04-01T11:31:55;5.40;99.90
32769;DHT22;23049;54.304;8.826;2023-04-01T11:39:33;5.20;99.90
32769;DHT22;23049;54.304;8.826;2023-04-01T11:42:17;5.20;99.90
32769;DHT22;23049;54.304;8.826;2023-04-01T11:50:35;5.20;99.90
32769;DHT22;23049;54.304;8.826;2023-04-01T11:53:05;5.30;99.90
32769;DHT22;23049;54.304;8.826;2023-04-01T11:55:36;5.20;99.90
32769;DHT22;23049;54.304;8.826;2023-04-01T12:06:02;5.20;99.90
32769;DHT22;23049;54.304;8.826;2023-04-01T12:20:50;5.40;99.90
32769;DHT22;23049;54.304;8.826;2023-04-01T12:23:36;5.50;99.90
32769;DHT22;23049;54.304;8.826;2023-04-01T12:31:02;5.30;99.90
32769;DHT22;23049;54.304;8.826;2023-04-01T12:49:13;5.20;99.90
32769;DHT22;23049;54.304;8.826;2023-04-01T12:59:32;5.30;99.90
32769;DHT22;23049;54.304;8.826;2023-04-01T13:02:19;5.30;99.90
32769;DHT22;23049;54.304;8.826;2023-04-01T13:17:31;5.30;99.90
32769;DHT22;23049;54.304;8.826;2023-04-01T13:20:13;5.30;99.90
32769;DHT22;23049;54.304;8.826;2023-04-01T13:22:57;5.30;99.90
32769;DHT22;23049;54.304;8.826;2023-04-01T13:28:25;5.50;99.90
32769;DHT22;23049;54.304;8.826;2023-04-01T13:30:59;5.50;99.90
32769;DHT22;23049;54.304;8.826;2023-04-01T13:33:38;5.50;99.90
32769;DHT22;23049;54.304;8.826;2023-04-01T13:51:01;5.60;99.90
32769;DHT22;23049;54.304;8.826;2023-04-01T13:56:34;5.50;99.90
32769;DHT22;23049;54.304;8.826;2023-04-01T13:59:10;5.50;99.90
32769;DHT22;23049;54.304;8.826;2023-04-01T14:06:40;5.40;99.90
32769;DHT22;23049;54.304;8.826;2023-04-01T14:14:31;5.30;99.90
32769;DHT22;23049;54.304;8.826;2023-04-01T14:32:49;5.10;99.90
32769;DHT22;23049;54.304;8.826;2023-04-01T14:37:58;5.10;99.90
32769;DHT22;23049;54.304;8.826;2023-04-01T14:40:27;5.10;99.90
32769;DHT22;23049;54.304;8.826;2023-04-01T14:46:05;5.00;99.90
32769;DHT22;23049;54.304;8.826;2023-04-01T14:54:19;4.90;99.90
32769;DHT22;23049;54.304;8.826;2023-04-01T14:56:39;5.00;99.90
32769;DHT22;23049;54.304;8.826;2023-04-01T14:59:09;5.00;99.90
32769;DHT22;23049;54.304;8.826;2023-04-01T15:01:37;5.00;99.90
32769;DHT22;23049;54.304;8.826;2023-04-01T15:16:31;5.00;99.90
32769;DHT22;23049;54.304;8.826;2023-04-01T15:19:14;4.90;99.90
32769;DHT22;23049;54.304;8.826;2023-04-01T15:36:57;5.00;99.90
32769;DHT22;23049;54.304;8.826;2023-04-01T15:39:38;5.00;99.90
32769;DHT22;23049;54.304;8.826;2023-04-01T16:00:24;5.10;99.90
32769;DHT22;23049;54.304;8.826;2023-04-01T16:06:22;5.20;99.90
32769;DHT22;23049;54.304;8.826;2023-04-01T16:13:28;5.20;99.90
32769;DHT22;23049;54.304;8.826;2023-04-01T16:16:12;5.20;99.90
32769;DHT22;23049;54.304;8.826;2023-04-01T16:24:24;5.20;99.90
32769;DHT22;23049;54.304;8.826;2023-04-01T16:26:57;5.20;99.90
32769;DHT22;23049;54.304;8.826;2023-04-01T16:37:17;5.40;99.90
32769;DHT22;23049;54.304;8.826;2023-04-01T16:40:01;5.40;99.90
32769;DHT22;23049;54.304;8.826;2023-04-01T16:44:55;5.30;99.90
32769;DHT22;23049;54.304;8.826;2023-04-01T16:47:23;5.20;99.90
32769;DHT22;23049;54.304;8.826;2023-04-01T16:49:56;5.20;99.90
32769;DHT22;23049;54.304;8.826;2023-04-01T16:52:32;5.20;99.90
32769;DHT22;23049;54.304;8.826;2023-04-01T16:55:00;5.20;99.90
32769;DHT22;23049;54.304;8.826;2023-04-01T16:57:47;5.20;99.90
32769;DHT22;23049;54.304;8.826;2023-04-01T17:05:39;5.10;99.90
32769;DHT22;23049;54.304;8.826;2023-04-01T17:15:46;4.90;99.90
32769;DHT22;23049;54.304;8.826;2023-04-01T17:21:02;4.80;99.90
32769;DHT22;23049;54.304;8.826;2023-04-01T17:26:17;4.80;99.90
32769;DHT22;23049;54.304;8.826;2023-04-01T17:54:38;4.40;99.90
32769;DHT22;23049;54.304;8.826;2023-04-01T18:00:03;4.30;99.90
32769;DHT22;23049;54.304;8.826;2023-04-01T18:02:44;4.20;99.90
32769;DHT22;23049;54.304;8.826;2023-04-01T18:05:27;4.20;99.90
32769;DHT22;23049;54.304;8.826;2023-04-01T18:10:35;4.10;99.90
32769;DHT22;23049;54.304;8.826;2023-04-01T18:15:40;4.00;99.90
32769;DHT22;23049;54.304;8.826;2023-04-01T18:18:11;4.10;99.90
32769;DHT22;23049;54.304;8.826;2023-04-01T18:23:36;4.00;99.90
32769;DHT22;23049;54.304;8.826;2023-04-01T18:26:05;4.00;99.90
32769;DHT22;23049;54.304;8.826;2023-04-01T18:28:38;4.00;99.90
32769;DHT22;23049;54.304;8.826;2023-04-01T18:31:18;4.00;99.90
32769;DHT22;23049;54.304;8.826;2023-04-01T18:36:15;3.90;99.90
32769;DHT22;23049;54.304;8.826;2023-04-01T18:38:55;3.90;99.90
32769;DHT22;23049;54.304;8.826;2023-04-01T18:51:49;3.80;99.90
32769;DHT22;23049;54.304;8.826;2023-04-01T18:56:45;3.70;99.90
32769;DHT22;23049;54.304;8.826;2023-04-01T18:59:12;3.70;99.90
32769;DHT22;23049;54.304;8.826;2023-04-01T19:02:00;3.70;99.90
32769;DHT22;23049;54.304;8.826;2023-04-01T19:06:57;3.70;99.90
32769;DHT22;23049;54.304;8.826;2023-04-01T19:19:46;3.50;99.90
32769;DHT22;23049;54.304;8.826;2023-04-01T19:22:19;3.50;99.90
32769;DHT22;23049;54.304;8.826;2023-04-01T19:27:34;3.50;99.90
32769;DHT22;23049;54.304;8.826;2023-04-01T19:37:40;3.10;99.90
32769;DHT22;23049;54.304;8.826;2023-04-01T19:40:30;3.10;99.90
32769;DHT22;23049;54.304;8.826;2023-04-01T19:48:21;3.00;99.90
32769;DHT22;23049;54.304;8.826;2023-04-01T19:56:04;3.00;99.90
32769;DHT22;23049;54.304;8.826;2023-04-01T19:58:33;3.00;99.90
32769;DHT22;23049;54.304;8.826;2023-04-01T20:01:00;3.00;99.90
32769;DHT22;23049;54.304;8.826;2023-04-01T20:06:01;3.00;99.90
32769;DHT22;23049;54.304;8.826;2023-04-01T20:08:48;2.90;99.90
32769;DHT22;23049;54.304;8.826;2023-04-01T20:11:30;2.80;99.90
32769;DHT22;23049;54.304;8.826;2023-04-01T20:16:48;2.80;99.90
32769;DHT22;23049;54.304;8.826;2023-04-01T20:19:20;2.80;99.90
32769;DHT22;23049;54.304;8.826;2023-04-01T20:21:46;2.80;99.90
32769;DHT22;23049;54.304;8.826;2023-04-01T20:26:39;2.80;99.90
32769;DHT22;23049;54.304;8.826;2023-04-01T20:31:35;2.70;99.90
32769;DHT22;23049;54.304;8.826;2023-04-01T20:45:01;2.70;99.90
32769;DHT22;23049;54.304;8.826;2023-04-01T20:50:05;2.60;99.90
32769;DHT22;23049;54.304;8.826;2023-04-01T21:08:07;2.10;99.90
32769;DHT22;23049;54.304;8.826;2023-04-01T21:10:41;2.10;99.90
32769;DHT22;23049;54.304;8.826;2023-04-01T21:23:59;2.00;99.90
32769;DHT22;23049;54.304;8.826;2023-04-01T21:44:07;1.80;99.90
32769;DHT22;23049;54.304;8.826;2023-04-01T21:54:30;1.70;99.90
32769;DHT22;23049;54.304;8.826;2023-04-01T21:57:20;1.70;99.90
32769;DHT22;23049;54.304;8.826;2023-04-01T22:05:21;1.70;99.90
32769;DHT22;23049;54.304;8.826;2023-04-01T22:16:03;1.70;99.90
32769;DHT22;23049;54.304;8.826;2023-04-01T22:20:59;1.70;99.90
32769;DHT22;23049;54.304;8.826;2023-04-01T22:23:38;1.60;99.90
32769;DHT22;23049;54.304;8.826;2023-04-01T22:26:07;1.40;99.90
32769;DHT22;23049;54.304;8.826;2023-04-01T22:31:07;1.20;99.90
32769;DHT22;23049;54.304;8.826;2023-04-01T22:38:51;1.10;99.90
32769;DHT22;23049;54.304;8.826;2023-04-01T22:43:54;1.10;99.90
32769;DHT22;23049;54.304;8.826;2023-04-01T22:49:10;1.00;99.90
32769;DHT22;23049;54.304;8.826;2023-04-01T22:51:46;1.10;99.90
32769;DHT22;23049;54.304;8.826;2023-04-01T22:54:21;1.10;99.90
32769;DHT22;23049;54.304;8.826;2023-04-01T22:59:19;1.00;99.90
32769;DHT22;23049;54.304;8.826;2023-04-01T23:01:55;1.00;99.90
32769;DHT22;23049;54.304;8.826;2023-04-01T23:04:24;1.00;99.90
32769;DHT22;23049;54.304;8.826;2023-04-01T23:06:55;0.90;99.90
32769;DHT22;23049;54.304;8.826;2023-04-01T23:09:34;0.90;99.90
32769;DHT22;23049;54.304;8.826;2023-04-01T23:12:04;0.90;99.90
32769;DHT22;23049;54.304;8.826;2023-04-01T23:14:48;0.80;99.90
32769;DHT22;23049;54.304;8.826;2023-04-01T23:25:12;1.10;99.90
32769;DHT22;23049;54.304;8.826;2023-04-01T23:27:45;1.10;99.90
32769;DHT22;23049;54.304;8.826;2023-04-01T23:30:45;1.10;99.90
32769;DHT22;23049;54.304;8.826;2023-04-01T23:35:52;0.90;99.90
32769;DHT22;23049;54.304;8.826;2023-04-01T23:38:19;1.00;99.90
32769;DHT22;23049;54.304;8.826;2023-04-01T23:40:49;1.00;99.90
32769;DHT22;23049;54.304;8.826;2023-04-01T23:43:22;1.10;99.90
32769;DHT22;23049;54.304;8.826;2023-04-01T23:45:49;1.00;99.90
32769;DHT22;23049;54.304;8.826;2023-04-01T23:48:15;1.00;99.90
32769;DHT22;23049;54.304;8.826;2023-04-01T23:50:41;1.00;99.90
32769;DHT22;23049;54.304;8.826;2023-04-01T23:53:17;1.00;99.90
32769;DHT22;23049;54.304;8.826;2023-04-01T23:55:43;1.00;99.90
